Time;durP1;ratioP1;P1;durP2;ratioP2;P2;SDS_P1;SDS_P2;PMS_P1;PMS_P2;Temp;Humidity;BMP_temperature;BMP_pressure;BME280_temperature;BME280_humidity;BME280_pressure;Samples;Min_cycle;Max_cycle;Signal;HPM_P1;HPM_P2
2023/08/02 00:02:05;;;;;;;;;1.00;1.00;;;;;21.79;69.76;100009.09;5036705;28;45293;-73
2023/08/02 00:04:30;;;;;;;;;1.00;1.00;;;;;;;;5036760;28;45396;-72
2023/08/02 00:06:56;;;;;;;;;1.00;1.00;;;;;;;;5036498;28;45494;-72
2023/08/02 00:09:21;;;;;;;;;1.00;0.67;;;;;21.74;68.96;99994.16;5036347;28;45615;-73
2023/08/02 00:11:50;;;;;;;;;1.00;1.00;;;;;21.73;69.61;99992.41;5035269;28;45475;-72
2023/08/02 00:14:16;;;;;;;;;0.00;0.00;;;;;21.69;69.31;99996.06;5035382;28;45498;-73
2023/08/02 00:16:42;;;;;;;;;1.67;0.67;;;;;21.55;69.75;99976.00;5036534;28;46237;-74
2023/08/02 00:19:08;;;;;;;;;1.67;1.00;;;;;21.52;70.52;99991.16;5036357;28;45498;-74
2023/08/02 00:21:33;;;;;;;;;1.67;1.00;;;;;21.50;70.33;99985.84;5051594;28;45322;-73
2023/08/02 00:23:59;;;;;;;;;1.00;1.00;;;;;21.49;70.48;99989.44;5036487;28;45434;-73
2023/08/02 00:26:25;;;;;;;;;1.00;0.67;;;;;21.45;70.96;99982.47;5036137;28;45565;-73
2023/08/02 00:28:50;;;;;;;;;1.00;1.00;;;;;21.51;71.09;99987.63;5034815;28;45483;-73
2023/08/02 00:31:16;;;;;;;;;2.00;1.00;;;;;21.47;71.23;99979.75;5036091;28;45201;-72
2023/08/02 00:33:42;;;;;;;;;0.00;0.00;;;;;21.28;70.91;99964.22;5036730;28;45466;-73
2023/08/02 00:36:08;;;;;;;;;1.00;1.00;;;;;21.40;70.96;99979.84;5036116;28;45633;-74
2023/08/02 00:38:34;;;;;;;;;1.00;1.00;;;;;21.45;70.43;99969.16;5034783;28;45496;-73
2023/08/02 00:41:05;;;;;;;;;1.67;1.00;;;;;21.46;70.95;99968.25;5036198;28;45374;-73
2023/08/02 00:43:42;;;;;;;;;0.33;0.00;;;;;21.35;70.69;99959.66;5038642;28;45380;-73
2023/08/02 00:46:09;;;;;;;;;2.00;1.00;;;;;21.25;70.70;99943.03;5039377;28;46236;-72
2023/08/02 00:48:35;;;;;;;;;1.00;0.00;;;;;21.32;71.24;99949.94;5039311;28;45497;-72
2023/08/02 00:51:02;;;;;;;;;1.00;1.00;;;;;21.42;70.08;99946.16;5039343;28;45662;-73
2023/08/02 00:53:28;;;;;;;;;1.67;1.00;;;;;21.39;70.83;99945.38;5039581;28;45237;-72
2023/08/02 00:55:55;;;;;;;;;0.33;0.33;;;;;21.41;70.99;99943.56;5039189;28;45493;-73
2023/08/02 00:58:21;;;;;;;;;0.33;0.00;;;;;21.37;70.71;99921.50;5039327;28;45492;-73
2023/08/02 01:00:47;;;;;;;;;1.00;0.33;;;;;21.39;70.19;99929.44;5039164;28;45478;-73
2023/08/02 01:03:13;;;;;;;;;1.00;1.00;;;;;21.28;71.01;99919.03;5038416;28;45498;-73
2023/08/02 01:05:56;;;;;;;;;0.00;0.00;;;;;21.18;70.59;99898.94;5039041;28;46484;-73
2023/08/02 01:08:28;;;;;;;;;1.00;1.00;;;;;21.15;70.84;99902.53;5038870;28;45784;-73
2023/08/02 01:11:16;;;;;;;;;1.00;0.00;;;;;21.09;71.20;99905.34;5037927;28;45312;-74
2023/08/02 01:13:49;;;;;;;;;2.00;1.00;;;;;21.13;71.26;99890.19;5039356;28;45443;-74
2023/08/02 01:16:16;;;;;;;;;1.00;1.00;;;;;21.10;71.74;99880.50;5038753;28;45513;-74
2023/08/02 01:18:42;;;;;;;;;1.00;0.67;;;;;21.16;71.55;99883.03;5038658;28;45423;-73
2023/08/02 01:21:08;;;;;;;;;1.00;1.00;;;;;21.17;71.48;99878.56;5038726;28;45554;-73
2023/08/02 01:23:33;;;;;;;;;1.00;0.67;;;;;21.18;70.99;99872.38;5039212;28;45392;-73
2023/08/02 01:26:00;;;;;;;;;1.00;1.00;;;;;21.21;70.95;99867.00;5038806;28;45657;-73
2023/08/02 01:28:27;;;;;;;;;1.67;1.00;;;;;21.18;70.70;99878.53;5038597;28;45454;-73
2023/08/02 01:30:54;;;;;;;;;1.33;1.33;;;;;21.17;70.83;99881.22;5037464;28;45186;-73
2023/08/02 01:33:22;;;;;;;;;2.00;1.00;;;;;21.20;71.03;99871.41;5039258;28;45320;-73
2023/08/02 01:35:49;;;;;;;;;1.00;1.00;;;;;21.23;71.21;99874.00;5039022;28;45955;-74
2023/08/02 01:38:15;;;;;;;;;2.00;1.00;;;;;21.17;70.98;99859.97;5037401;28;45451;-73
2023/08/02 01:40:40;;;;;;;;;2.00;1.00;;;;;21.22;71.26;99872.25;5038550;28;45359;-73
2023/08/02 01:43:06;;;;;;;;;1.00;1.00;;;;;21.10;71.25;99867.25;5037518;28;45456;-74
2023/08/02 01:45:32;;;;;;;;;0.67;0.67;;;;;21.08;71.56;99861.09;5036914;28;46677;-74
2023/08/02 01:47:57;;;;;;;;;1.67;1.00;;;;;21.06;71.64;99862.91;5038389;28;45387;-74
2023/08/02 01:50:23;;;;;;;;;3.33;2.00;;;;;21.16;71.78;99869.75;5038577;28;45307;-74
2023/08/02 01:52:49;;;;;;;;;2.00;2.00;;;;;21.16;71.79;99867.09;5054268;28;45437;-74
2023/08/02 01:55:18;;;;;;;;;1.00;1.00;;;;;20.98;71.76;99865.75;5036908;28;47678;-74
2023/08/02 01:57:44;;;;;;;;;1.00;1.00;;;;;20.95;71.74;99860.53;5037112;28;45431;-73
2023/08/02 02:13:36;;;;;;;;;0.50;0.50;;;;;21.00;70.96;99853.31;5037836;28;45407;-73
2023/08/02 02:16:02;;;;;;;;;1.67;1.00;;;;;21.03;71.09;99855.03;5037046;28;46181;-74
2023/08/02 02:18:28;;;;;;;;;2.33;2.00;;;;;21.03;71.12;99853.25;5037832;28;46437;-73
2023/08/02 02:20:53;;;;;;;;;2.00;2.00;;;;;21.10;71.32;99859.28;5037786;28;46157;-73
2023/08/02 02:23:19;;;;;;;;;1.33;1.33;;;;;21.10;71.00;99848.66;5037965;28;45400;-73
2023/08/02 02:26:03;;;;;;;;;1.00;1.00;;;;;21.12;71.25;99852.13;5038568;28;45489;-73
2023/08/02 02:28:29;;;;;;;;;1.33;1.00;;;;;21.06;71.46;99849.63;5037571;28;45732;-73
2023/08/02 02:30:56;;;;;;;;;1.00;1.00;;;;;21.03;71.90;99845.28;5037540;28;45408;-74
2023/08/02 02:33:22;;;;;;;;;2.00;2.00;;;;;21.04;71.57;99843.50;5038026;28;45323;-74
2023/08/02 02:35:48;;;;;;;;;3.00;2.00;;;;;20.98;71.36;99847.16;5036621;28;45345;-74
2023/08/02 02:38:13;;;;;;;;;1.67;1.33;;;;;20.88;71.50;99847.44;5037819;28;45402;-73
2023/08/02 02:40:39;;;;;;;;;1.33;1.33;;;;;20.84;71.31;99842.19;5037737;28;45454;-74
2023/08/02 02:43:05;;;;;;;;;2.00;2.00;;;;;20.89;71.21;99835.88;5038236;28;45312;-73
2023/08/02 02:45:30;;;;;;;;;2.00;2.00;;;;;20.97;71.89;99844.53;5037835;28;45312;-73
2023/08/02 02:47:56;;;;;;;;;2.00;2.00;;;;;20.91;71.55;99839.38;5037531;28;46151;-73
2023/08/02 02:50:21;;;;;;;;;2.00;1.67;;;;;20.95;71.75;99841.94;5037601;28;45489;-73
2023/08/02 02:52:47;;;;;;;;;3.33;2.00;;;;;20.98;71.21;99847.16;5037812;28;45335;-73
2023/08/02 02:55:13;;;;;;;;;3.00;3.00;;;;;20.96;71.55;99834.84;5037791;28;45299;-73
2023/08/02 02:57:38;;;;;;;;;2.00;2.00;;;;;21.05;71.17;99848.78;5037787;28;46120;-73
2023/08/02 03:00:05;;;;;;;;;2.33;2.00;;;;;21.00;71.26;99836.50;5037529;28;45670;-73
2023/08/02 03:02:31;;;;;;;;;2.00;2.00;;;;;21.00;71.20;99832.06;5037502;28;45181;-73
2023/08/02 03:04:57;;;;;;;;;3.00;2.00;;;;;21.00;71.26;99828.53;5036795;28;45331;-73
2023/08/02 03:07:22;;;;;;;;;2.67;2.67;;;;;20.92;71.96;99827.84;5037153;28;45496;-73
2023/08/02 03:09:48;;;;;;;;;1.67;1.67;;;;;20.90;71.83;99822.59;5037255;28;45446;-73
2023/08/02 03:12:14;;;;;;;;;2.00;2.00;;;;;20.94;71.22;99821.59;5036001;28;45383;-73
2023/08/02 03:14:39;;;;;;;;;1.67;1.00;;;;;20.96;70.74;99816.25;5037535;28;45791;-73
2023/08/02 03:17:05;;;;;;;;;2.33;2.33;;;;;20.72;72.23;99810.63;5036116;28;46939;-73
2023/08/02 03:19:31;;;;;;;;;2.67;2.00;;;;;20.81;71.91;99807.75;5037008;28;45531;-73
2023/08/02 03:21:56;;;;;;;;;3.00;3.00;;;;;20.85;71.49;99806.78;5037056;28;45370;-73
2023/08/02 03:24:22;;;;;;;;;3.00;3.00;;;;;20.84;71.47;99806.81;5037313;28;45304;-73
2023/08/02 03:26:47;;;;;;;;;4.00;3.00;;;;;20.78;71.35;99809.59;5036888;28;46144;-73
2023/08/02 03:29:13;;;;;;;;;2.00;2.00;;;;;20.75;70.94;99804.34;5036871;28;45399;-73
2023/08/02 03:31:39;;;;;;;;;5.00;2.00;;;;;20.69;71.37;99799.19;5037346;28;45506;-73
2023/08/02 03:34:04;;;;;;;;;2.00;2.00;;;;;20.77;71.54;99818.47;5037400;28;45339;-73
2023/08/02 03:36:30;;;;;;;;;2.00;2.00;;;;;20.71;71.48;99797.38;5036793;28;45875;-73
2023/08/02 03:38:56;;;;;;;;;3.00;3.00;;;;;20.70;71.93;99807.13;5036826;28;45295;-73
2023/08/02 03:41:21;;;;;;;;;2.33;2.00;;;;;20.71;71.74;99810.66;5035435;28;45394;-73
2023/08/02 03:43:47;;;;;;;;;2.33;2.33;;;;;20.72;71.36;99813.28;5037045;28;45485;-73
2023/08/02 03:46:13;;;;;;;;;2.33;2.00;;;;;20.80;71.61;99818.41;5036695;28;45943;-73
2023/08/02 03:48:39;;;;;;;;;2.67;2.67;;;;;20.77;71.56;99819.34;5037107;28;45450;-73
2023/08/02 03:51:04;;;;;;;;;2.00;2.00;;;;;20.74;71.26;99814.09;5036847;28;45268;-73
2023/08/02 03:53:31;;;;;;;;;2.00;2.00;;;;;20.78;71.17;99814.91;5036584;28;45285;-73
2023/08/02 03:55:56;;;;;;;;;3.00;3.00;;;;;20.82;71.46;99809.50;5036709;28;45927;-73
2023/08/02 03:58:22;;;;;;;;;2.00;2.00;;;;;20.81;70.49;99799.78;5035378;28;45491;-73
2023/08/02 04:00:47;;;;;;;;;3.00;3.00;;;;;20.80;70.96;99792.72;5036714;28;45361;-73
2023/08/02 04:03:13;;;;;;;;;3.67;3.67;;;;;20.80;70.88;99800.69;5036855;28;45501;-73
2023/08/02 04:05:39;;;;;;;;;2.00;2.00;;;;;20.81;70.73;99810.41;5036624;28;45895;-73
2023/08/02 04:08:05;;;;;;;;;2.67;2.33;;;;;20.83;70.74;99807.69;5036564;28;45450;-73
2023/08/02 04:10:36;;;;;;;;;3.00;2.00;;;;;20.84;70.74;99809.47;5036757;28;45334;-73
2023/08/02 04:13:01;;;;;;;;;3.33;3.33;;;;;20.82;70.61;99806.84;5036604;28;45481;-73
2023/08/02 04:15:30;;;;;;;;;6.00;4.00;;;;;20.81;70.64;99798.91;5035964;28;45233;-73
2023/08/02 04:17:56;;;;;;;;;3.33;3.00;;;;;20.84;70.34;99809.47;5037993;28;45439;-73
2023/08/02 04:20:21;;;;;;;;;4.00;3.00;;;;;20.74;70.30;99792.00;5038446;28;45478;-74
2023/08/02 04:22:49;;;;;;;;;2.00;2.00;;;;;20.76;70.65;99811.44;5039994;28;45634;-74
2023/08/02 04:25:15;;;;;;;;;2.00;2.00;;;;;20.72;70.68;99802.66;5055323;28;45380;-73
2023/08/02 04:27:40;;;;;;;;;3.67;3.00;;;;;20.75;70.79;99807.91;5038519;28;45316;-73
2023/08/02 04:30:07;;;;;;;;;3.00;3.00;;;;;20.66;70.80;99794.84;5039867;28;45487;-73
2023/08/02 04:32:32;;;;;;;;;4.00;3.67;;;;;20.66;71.14;99816.94;5040095;28;45221;-73
2023/08/02 04:34:58;;;;;;;;;4.00;3.33;;;;;20.61;71.45;99818.84;5039525;28;45270;-73
2023/08/02 04:37:24;;;;;;;;;2.33;2.00;;;;;20.61;71.29;99818.84;5039707;28;45296;-73
2023/08/02 04:39:49;;;;;;;;;3.00;2.67;;;;;20.64;71.28;99816.09;5040034;28;45715;-73
2023/08/02 04:42:18;;;;;;;;;3.33;3.33;;;;;20.71;71.18;99826.56;5039648;28;45506;-73
2023/08/02 04:44:43;;;;;;;;;4.33;3.33;;;;;20.66;71.40;99822.25;5039762;28;45358;-74
2023/08/02 04:47:09;;;;;;;;;3.00;2.67;;;;;20.69;70.95;99816.00;5039400;28;45450;-74
2023/08/02 04:49:35;;;;;;;;;3.67;3.67;;;;;20.73;71.15;99819.44;5039722;28;45355;-74
2023/08/02 04:52:01;;;;;;;;;6.00;5.00;;;;;20.72;71.21;99813.28;5038438;28;45516;-73
2023/08/02 04:54:27;;;;;;;;;2.33;2.33;;;;;20.82;70.93;99830.72;5039303;28;45509;-74
2023/08/02 04:56:53;;;;;;;;;4.00;4.00;;;;;20.88;70.43;99826.19;5039214;28;45474;-73
2023/08/02 04:59:18;;;;;;;;;3.67;3.33;;;;;20.93;70.63;99824.28;5039389;28;45433;-73
2023/08/02 05:01:44;;;;;;;;;5.00;4.00;;;;;20.95;70.74;99825.13;5039687;28;45542;-73
2023/08/02 05:04:10;;;;;;;;;3.33;3.00;;;;;20.92;70.57;99811.94;5054644;28;45420;-73
2023/08/02 05:06:35;;;;;;;;;3.33;3.00;;;;;21.00;70.29;99820.56;5039257;28;45878;-74
2023/08/02 05:09:04;;;;;;;;;4.00;4.00;;;;;21.11;70.31;99828.25;5039314;28;45548;-73
2023/08/02 05:11:31;;;;;;;;;4.00;3.33;;;;;21.09;70.06;99828.34;5039324;28;45509;-73
2023/08/02 05:13:57;;;;;;;;;3.00;3.00;;;;;21.17;69.58;99820.16;5037530;28;45467;-73
2023/08/02 05:16:22;;;;;;;;;6.00;4.33;;;;;21.18;69.14;99813.94;5038789;28;45204;-73
2023/08/02 05:18:48;;;;;;;;;8.33;6.00;;;;;21.26;68.91;99817.25;5038953;28;45474;-73
2023/08/02 05:21:15;;;;;;;;;6.67;5.00;;;;;21.24;68.55;99814.63;5039328;28;45369;-73
2023/08/02 05:23:42;;;;;;;;;4.00;4.00;;;;;21.28;68.80;99817.22;5038862;28;45488;-73
2023/08/02 05:26:08;;;;;;;;;4.00;4.00;;;;;21.35;68.56;99826.81;5038735;28;45493;-73
2023/08/02 05:28:35;;;;;;;;;5.33;5.00;;;;;21.44;68.25;99818.59;5036917;28;45417;-73
2023/08/02 05:31:01;;;;;;;;;5.67;5.00;;;;;21.57;67.69;99821.81;5039072;28;45315;-74
2023/08/02 05:33:26;;;;;;;;;6.00;5.00;;;;;21.70;66.93;99817.91;5038549;28;45306;-73
2023/08/02 05:35:52;;;;;;;;;4.67;4.33;;;;;21.77;67.11;99818.63;5038501;28;45197;-73
2023/08/02 05:38:18;;;;;;;;;3.00;2.33;;;;;21.79;66.62;99807.03;5039043;28;45223;-73
2023/08/02 05:40:43;;;;;;;;;6.67;6.00;;;;;21.93;66.12;99796.00;5039103;28;45237;-73
2023/08/02 05:43:09;;;;;;;;;5.00;4.00;;;;;22.08;65.57;99793.81;5038733;28;45421;-74
2023/08/02 05:45:35;;;;;;;;;6.00;6.00;;;;;22.23;65.29;99796.03;5038550;28;45204;-74
2023/08/02 05:48:00;;;;;;;;;5.67;5.00;;;;;22.26;66.44;99792.41;5038662;28;45272;-74
2023/08/02 05:50:28;;;;;;;;;3.67;3.67;;;;;22.29;66.75;99792.34;5037412;28;45274;-73
2023/08/02 05:52:54;;;;;;;;;4.00;4.00;;;;;22.30;66.71;99781.63;5038341;28;45462;-73
2023/08/02 05:55:21;;;;;;;;;4.00;4.00;;;;;22.49;65.69;99784.59;5038425;28;45343;-73
2023/08/02 05:57:49;;;;;;;;;5.00;5.00;;;;;22.56;65.70;99772.88;5037711;28;45538;-74
2023/08/02 06:00:16;;;;;;;;;4.00;4.00;;;;;22.66;65.79;99785.84;5038975;28;45216;-74
2023/08/02 06:02:42;;;;;;;;;3.67;3.67;;;;;22.82;65.62;99790.66;5038194;28;45369;-73
2023/08/02 06:05:08;;;;;;;;;4.00;4.00;;;;;22.71;65.70;99781.28;5038198;28;45342;-74
2023/08/02 06:07:34;;;;;;;;;4.00;3.33;;;;;22.83;65.20;99795.03;5037985;28;45570;-73
2023/08/02 06:10:00;;;;;;;;;3.67;3.00;;;;;22.96;65.00;99786.66;5037152;28;45815;-73
2023/08/02 06:12:25;;;;;;;;;5.00;4.67;;;;;23.06;65.07;99792.56;5037962;28;45347;-74
2023/08/02 06:14:51;;;;;;;;;4.00;4.00;;;;;23.22;64.57;99799.16;5038323;28;45514;-73
2023/08/02 06:17:17;;;;;;;;;5.00;5.00;;;;;23.28;64.13;99787.38;5054117;28;45321;-73
2023/08/02 06:19:43;;;;;;;;;5.00;5.00;;;;;23.51;63.81;99794.59;5037054;28;45298;-72
2023/08/02 06:22:09;;;;;;;;;5.00;4.00;;;;;23.75;63.09;99787.50;5037704;28;45513;-73
2023/08/02 06:24:34;;;;;;;;;6.67;5.00;;;;;24.00;62.56;99788.38;5036605;28;45210;-73
2023/08/02 06:27:00;;;;;;;;;5.33;5.00;;;;;24.25;61.96;99787.44;5038149;28;45526;-73
2023/08/02 06:29:26;;;;;;;;;6.00;4.67;;;;;24.53;61.86;99789.06;5038193;28;45361;-72
2023/08/02 06:31:51;;;;;;;;;5.00;5.00;;;;;25.06;60.49;99786.00;5037436;28;45409;-73
2023/08/02 06:34:19;;;;;;;;;5.67;5.33;;;;;25.85;58.64;99775.47;5036918;28;45530;-73
2023/08/02 06:36:44;;;;;;;;;5.67;5.33;;;;;27.66;53.55;99787.22;5020170;28;45289;-73
2023/08/02 06:39:10;;;;;;;;;4.00;3.00;;;;;29.14;50.10;99782.59;5037906;28;45302;-73
2023/08/02 06:41:35;;;;;;;;;5.67;4.67;;;;;28.88;50.24;99789.47;5035039;28;46836;-74
2023/08/02 06:44:03;;;;;;;;;7.00;6.33;;;;;28.45;51.07;99791.91;5036428;28;45487;-73
2023/08/02 06:46:30;;;;;;;;;6.67;6.33;;;;;27.44;54.56;99783.94;5037863;28;45450;-73
2023/08/02 06:48:56;;;;;;;;;5.00;5.00;;;;;26.82;55.65;99783.47;5037977;28;45457;-73
2023/08/02 06:51:21;;;;;;;;;5.00;4.00;;;;;26.45;56.38;99786.09;5037531;28;45511;-73
2023/08/02 06:53:47;;;;;;;;;4.33;4.33;;;;;26.14;57.44;99784.88;5038167;28;45412;-73
2023/08/02 06:56:14;;;;;;;;;7.00;6.00;;;;;26.07;57.55;99782.56;5036350;28;45410;-73
2023/08/02 06:58:40;;;;;;;;;6.00;5.67;;;;;25.94;57.74;99788.47;5037889;28;45411;-73
2023/08/02 07:01:17;;;;;;;;;7.00;5.00;;;;;25.93;57.69;99778.69;5037013;28;45330;-73
2023/08/02 07:03:44;;;;;;;;;4.33;3.33;;;;;25.94;58.07;99791.16;5037104;28;45346;-73
2023/08/02 07:06:14;;;;;;;;;7.00;6.00;;;;;25.60;57.86;99765.88;5037483;28;45562;-73
2023/08/02 07:08:41;;;;;;;;;8.00;6.00;;;;;25.74;58.43;99802.69;5037590;28;45268;-74
2023/08/02 07:11:07;;;;;;;;;7.67;6.00;;;;;25.56;59.08;99791.00;5035669;28;47127;-73
2023/08/02 07:13:36;;;;;;;;;8.00;6.33;;;;;25.61;58.95;99796.16;5037291;28;45764;-74
2023/08/02 07:16:02;;;;;;;;;5.00;4.67;;;;;25.56;59.42;99806.19;5037055;28;45409;-74
2023/08/02 07:18:29;;;;;;;;;5.67;5.33;;;;;25.69;59.13;99803.84;5038203;28;45444;-74
2023/08/02 07:20:54;;;;;;;;;6.67;6.33;;;;;25.78;59.18;99806.09;5035663;28;46509;-74
2023/08/02 07:23:21;;;;;;;;;6.00;5.33;;;;;25.78;58.60;99801.66;5036239;28;45584;-74
2023/08/02 07:25:47;;;;;;;;;10.00;8.67;;;;;25.84;59.05;99794.25;5037201;28;45323;-74
2023/08/02 07:28:12;;;;;;;;;8.33;6.33;;;;;25.91;58.93;99803.78;5037192;28;45487;-74
2023/08/02 07:30:38;;;;;;;;;7.00;7.00;;;;;25.96;59.18;99805.31;5036958;28;46142;-73
2023/08/02 07:33:03;;;;;;;;;5.67;5.67;;;;;25.97;58.72;99804.38;5035663;28;45441;-74
2023/08/02 07:35:29;;;;;;;;;5.67;5.67;;;;;25.96;58.95;99797.31;5035881;28;45490;-74
2023/08/02 07:37:55;;;;;;;;;6.00;6.00;;;;;25.95;59.19;99792.88;5035854;28;45281;-73
2023/08/02 07:40:21;;;;;;;;;6.33;5.00;;;;;26.05;58.90;99804.03;5036834;28;46298;-74
2023/08/02 07:42:47;;;;;;;;;7.67;6.00;;;;;26.06;58.54;99788.81;5036592;28;45456;-73
2023/08/02 07:45:12;;;;;;;;;8.00;7.00;;;;;26.13;59.34;99784.94;5036868;28;45371;-74
2023/08/02 07:47:38;;;;;;;;;8.33;7.33;;;;;26.32;58.55;99787.59;5036124;28;45534;-73
2023/08/02 07:50:05;;;;;;;;;8.00;8.00;;;;;26.29;59.27;99777.06;5036173;28;45508;-74
2023/08/02 07:52:32;;;;;;;;;7.00;6.00;;;;;26.36;59.72;99781.16;5038685;28;45288;-74
2023/08/02 07:54:58;;;;;;;;;6.67;6.67;;;;;26.50;59.09;99777.81;5039924;28;45228;-74
2023/08/02 07:57:30;;;;;;;;;5.33;5.33;;;;;26.75;58.66;99796.28;5039990;28;45518;-74
2023/08/02 07:59:57;;;;;;;;;6.00;5.67;;;;;26.91;58.61;99797.28;5039905;28;46220;-73
2023/08/02 08:02:23;;;;;;;;;5.67;5.67;;;;;27.09;58.12;99798.16;5040096;28;45831;-74
2023/08/02 08:04:48;;;;;;;;;8.33;6.33;;;;;27.23;58.31;99799.28;5039811;28;45331;-74
2023/08/02 08:07:14;;;;;;;;;6.00;6.00;;;;;27.30;57.73;99788.22;5039931;28;45327;-73
2023/08/02 08:09:40;;;;;;;;;5.33;5.33;;;;;27.42;57.59;99778.66;5038336;28;46712;-74
2023/08/02 08:12:06;;;;;;;;;7.67;6.33;;;;;27.86;57.08;99788.84;5039890;28;45363;-73
2023/08/02 08:14:33;;;;;;;;;8.00;8.00;;;;;28.13;56.44;99782.94;5037626;28;46083;-75
2023/08/02 08:17:00;;;;;;;;;6.00;5.67;;;;;28.27;56.33;99785.75;5039431;28;45473;-74
2023/08/02 08:19:27;;;;;;;;;7.67;7.00;;;;;28.49;55.53;99773.78;5037536;28;46454;-74
2023/08/02 08:21:53;;;;;;;;;6.67;6.67;;;;;28.94;54.70;99793.63;5039371;28;45489;-73
2023/08/02 08:24:19;;;;;;;;;5.33;5.00;;;;;29.62;51.93;99784.25;5038926;28;45242;-74
2023/08/02 08:26:45;;;;;;;;;4.67;4.33;;;;;29.91;50.91;99787.88;5038789;28;45481;-73
2023/08/02 08:29:11;;;;;;;;;5.67;5.00;;;;;30.04;50.57;99798.72;5038673;28;45331;-74
2023/08/02 08:31:37;;;;;;;;;6.00;6.00;;;;;30.03;49.95;99788.94;5037476;28;45738;-74
2023/08/02 08:34:03;;;;;;;;;5.00;5.00;;;;;30.12;50.36;99794.63;5038842;28;45436;-74
2023/08/02 08:36:31;;;;;;;;;5.00;5.00;;;;;30.48;51.30;99785.16;5038734;28;45514;-74
2023/08/02 08:38:57;;;;;;;;;5.67;5.00;;;;;32.70;45.07;99781.50;5038677;28;45492;-74
2023/08/02 08:41:23;;;;;;;;;7.00;6.33;;;;;34.90;41.02;99766.09;5038529;28;45522;-74
2023/08/02 08:43:49;;;;;;;;;3.33;3.33;;;;;36.55;37.91;99762.59;5038410;28;45435;-74
2023/08/02 08:46:15;;;;;;;;;5.33;4.67;;;;;38.19;36.64;99768.91;5038398;28;45422;-74
2023/08/02 08:48:41;;;;;;;;;4.00;4.00;;;;;39.42;35.28;99761.19;5038507;28;45360;-74
2023/08/02 08:51:13;;;;;;;;;6.67;6.00;;;;;40.49;34.10;99769.94;5037127;28;45375;-75
2023/08/02 08:53:43;;;;;;;;;6.67;6.67;;;;;41.30;30.72;99763.75;5038223;28;45395;-75
2023/08/02 08:56:10;;;;;;;;;9.00;9.00;;;;;41.99;29.32;99763.31;5038353;28;45316;-74
2023/08/02 08:58:37;;;;;;;;;4.67;4.67;;;;;42.89;27.29;99760.16;5038251;28;46058;-75
2023/08/02 09:01:04;;;;;;;;;4.67;4.00;;;;;43.24;26.45;99759.72;5038459;28;45445;-75
2023/08/02 09:03:30;;;;;;;;;4.00;4.00;;;;;43.68;28.10;99758.97;5036525;28;45305;-76
2023/08/02 09:06:01;;;;;;;;;3.00;2.67;;;;;44.19;25.07;99758.22;5038965;28;45386;-76
2023/08/02 09:08:27;;;;;;;;;4.33;4.33;;;;;44.30;25.76;99760.47;5038835;28;46142;-76
2023/08/02 09:10:53;;;;;;;;;3.67;3.33;;;;;44.64;24.19;99734.22;5036642;28;45671;-76
2023/08/02 09:13:27;;;;;;;;;4.00;3.33;;;;;44.41;24.71;99731.59;5036242;28;45445;-76
2023/08/02 09:16:10;;;;;;;;;3.00;3.00;;;;;44.87;25.38;99747.84;5038639;28;45411;-77
2023/08/02 09:18:37;;;;;;;;;10.67;10.00;;;;;45.42;23.61;99743.44;5038577;28;46264;-76
2023/08/02 09:21:03;;;;;;;;;4.00;4.00;;;;;45.08;23.00;99746.94;5038079;28;45375;-76
2023/08/02 09:23:29;;;;;;;;;5.67;4.33;;;;;44.82;24.44;99737.34;5037162;28;45498;-76
2023/08/02 09:26:14;;;;;;;;;13.00;12.33;;;;;44.95;24.00;99738.56;5038703;28;45173;-76
2023/08/02 09:28:40;;;;;;;;;4.00;4.00;;;;;45.59;23.60;99744.00;5038427;28;45386;-76
2023/08/02 09:31:18;;;;;;;;;4.00;4.00;;;;;45.98;22.27;99747.19;5038318;28;45260;-76
2023/08/02 09:33:51;;;;;;;;;5.00;5.00;;;;;45.75;22.80;99753.88;5036992;28;45311;-76
2023/08/02 09:36:32;;;;;;;;;4.00;4.00;;;;;46.07;22.64;99751.53;5038139;28;45228;-75
2023/08/02 09:39:24;;;;;;;;;4.00;4.00;;;;;45.85;21.50;99750.75;5037813;28;46069;-76
2023/08/02 09:41:49;;;;;;;;;5.00;5.00;;;;;45.53;22.26;99754.97;5033342;28;45501;-75
2023/08/02 09:44:21;;;;;;;;;3.67;3.67;;;;;45.82;23.25;99757.53;5036750;28;45441;-75
2023/08/02 09:46:47;;;;;;;;;4.33;4.00;;;;;46.14;22.45;99757.94;5038090;28;45560;-75
2023/08/02 09:49:20;;;;;;;;;11.67;11.67;;;;;46.58;23.42;99750.25;5037648;28;45746;-75
2023/08/02 09:51:46;;;;;;;;;4.00;4.00;;;;;46.64;21.15;99743.91;5036319;28;45494;-75
2023/08/02 09:54:13;;;;;;;;;4.67;4.67;;;;;45.93;23.09;99746.97;5037701;28;45198;-75
2023/08/02 09:56:41;;;;;;;;;4.67;3.67;;;;;45.95;21.93;99742.94;5037815;28;45245;-75
2023/08/02 09:59:07;;;;;;;;;4.00;4.00;;;;;45.93;22.18;99736.78;5037363;28;45454;-76
2023/08/02 10:01:34;;;;;;;;;4.67;4.00;;;;;46.21;22.53;99745.00;5037578;28;45344;-75
2023/08/02 10:04:06;;;;;;;;;3.00;3.00;;;;;45.73;22.66;99738.59;5038126;28;45346;-75
2023/08/02 10:06:37;;;;;;;;;4.33;4.33;;;;;45.90;22.57;99736.34;5036390;28;45557;-76
2023/08/02 10:09:07;;;;;;;;;5.00;5.00;;;;;45.74;23.05;99720.97;5035917;28;46733;-75
2023/08/02 10:11:43;;;;;;;;;3.67;3.33;;;;;45.63;22.40;99723.22;5036026;28;45497;-76
2023/08/02 10:14:09;;;;;;;;;3.67;3.67;;;;;45.45;23.16;99734.75;5036885;28;45553;-75
2023/08/02 10:16:37;;;;;;;;;3.67;3.67;;;;;45.72;23.15;99729.44;5035905;28;45470;-76
2023/08/02 10:19:04;;;;;;;;;3.67;3.67;;;;;45.82;22.55;99727.19;5037139;28;45423;-76
2023/08/02 10:21:34;;;;;;;;;6.00;5.00;;;;;45.65;22.64;99731.31;5036792;28;45583;-75
2023/08/02 10:24:01;;;;;;;;;4.67;4.33;;;;;45.88;23.41;99728.25;5037188;28;45361;-76
2023/08/02 10:26:30;;;;;;;;;4.33;4.00;;;;;46.00;22.91;99726.63;5037145;28;45236;-75
2023/08/02 10:28:59;;;;;;;;;2.67;2.67;;;;;46.09;22.14;99730.09;5036499;28;45409;-75
2023/08/02 10:31:27;;;;;;;;;3.00;3.00;;;;;46.03;22.37;99722.59;5035634;28;45458;-75
2023/08/02 10:33:52;;;;;;;;;3.33;3.33;;;;;46.02;22.13;99729.16;5037155;28;45222;-75
2023/08/02 10:36:18;;;;;;;;;4.00;4.00;;;;;45.55;23.10;99726.13;5037482;28;45434;-72
2023/08/02 10:38:44;;;;;;;;;5.00;3.33;;;;;44.98;23.70;99729.91;5036973;28;45321;-73
2023/08/02 10:41:19;;;;;;;;;4.00;4.00;;;;;43.92;24.19;99733.09;5035418;28;45517;-73
2023/08/02 10:43:53;;;;;;;;;4.00;4.00;;;;;44.01;24.17;99737.44;5036602;28;45359;-74
2023/08/02 10:46:32;;;;;;;;;3.00;3.00;;;;;44.05;24.61;99744.28;5037140;28;45239;-75
2023/08/02 10:49:12;;;;;;;;;4.00;4.00;;;;;43.32;24.92;99732.19;5036307;28;45403;-75
2023/08/02 10:51:38;;;;;;;;;4.00;4.00;;;;;43.43;24.55;99734.44;5036662;28;45513;-75
2023/08/02 10:54:23;;;;;;;;;8.67;7.33;;;;;42.89;25.33;99729.94;5036993;28;45513;-75
2023/08/02 10:56:51;;;;;;;;;4.00;3.67;;;;;43.10;25.26;99737.50;5035439;28;45521;-75
2023/08/02 10:59:37;;;;;;;;;3.00;3.00;;;;;42.71;25.58;99726.63;5036091;28;45320;-75
2023/08/02 11:02:07;;;;;;;;;5.67;5.00;;;;;42.82;26.24;99720.69;5036469;28;45347;-75
2023/08/02 11:04:37;;;;;;;;;3.33;3.33;;;;;42.94;26.21;99720.28;5035562;28;45667;-75
2023/08/02 11:07:17;;;;;;;;;3.67;3.33;;;;;42.96;25.03;99708.09;5035893;28;45415;-75
2023/08/02 11:09:45;;;;;;;;;3.00;3.00;;;;;42.82;25.38;99698.72;5036354;28;45461;-75
2023/08/02 11:12:12;;;;;;;;;2.67;2.67;;;;;42.95;24.84;99700.03;5034377;28;45328;-73
2023/08/02 11:14:39;;;;;;;;;4.00;4.00;;;;;42.60;25.68;99700.44;5036440;28;45486;-73
2023/08/02 11:17:05;;;;;;;;;4.00;4.00;;;;;42.14;25.48;99697.59;5036688;28;45735;-73
2023/08/02 11:19:31;;;;;;;;;3.00;3.00;;;;;41.46;26.37;99683.41;5036348;28;46382;-73
2023/08/02 11:21:59;;;;;;;;;4.00;4.00;;;;;41.41;26.82;99671.28;5036249;28;45492;-73
2023/08/02 11:24:28;;;;;;;;;4.00;4.00;;;;;40.89;27.43;99669.78;5036594;28;45261;-73
2023/08/02 11:26:59;;;;;;;;;5.00;4.00;;;;;40.46;28.63;99674.50;5034209;28;45426;-73
2023/08/02 11:29:25;;;;;;;;;4.00;4.00;;;;;39.57;29.78;99672.13;5036233;28;46274;-73
2023/08/02 11:31:53;;;;;;;;;7.67;7.67;;;;;39.36;29.52;99663.41;5036509;28;45447;-73
2023/08/02 11:34:20;;;;;;;;;8.67;8.67;;;;;39.12;30.64;99666.84;5036316;28;46116;-73
2023/08/02 11:36:50;;;;;;;;;5.00;5.00;;;;;38.75;30.89;99655.09;5035025;28;45611;-73
2023/08/02 11:39:17;;;;;;;;;9.33;9.33;;;;;38.69;31.41;99649.41;5036125;28;46171;-73
2023/08/02 11:41:43;;;;;;;;;5.00;4.00;;;;;38.39;31.55;99657.81;5035827;28;45541;-73
2023/08/02 11:44:19;;;;;;;;;4.67;4.67;;;;;38.20;31.37;99647.91;5036310;28;45458;-74
2023/08/02 11:46:54;;;;;;;;;4.67;4.67;;;;;37.99;31.81;99644.56;5036446;28;45244;-73
2023/08/02 11:49:19;;;;;;;;;7.33;6.00;;;;;37.95;32.38;99651.34;5035887;28;45247;-73